createdAt,value
2019-05-21T00:00:24.595Z,29.60
2019-05-21T00:02:51.106Z,27.90
2019-05-21T00:05:17.494Z,27.43
2019-05-21T00:07:43.908Z,27.87
2019-05-21T00:10:10.475Z,27.73
2019-05-21T00:12:36.959Z,25.60
2019-05-21T00:15:04.162Z,27.17
2019-05-21T00:17:30.690Z,26.00
2019-05-21T00:19:57.356Z,25.53
2019-05-21T00:22:23.951Z,25.40
2019-05-21T00:24:50.671Z,23.80
2019-05-21T00:27:17.073Z,22.77
2019-05-21T00:30:39.133Z,23.27
2019-05-21T00:34:01.710Z,22.63
2019-05-21T00:37:23.680Z,23.63
2019-05-21T00:40:46.680Z,23.13
2019-05-21T00:43:13.273Z,22.27
2019-05-21T00:45:39.836Z,21.63
2019-05-21T00:48:06.215Z,22.07
2019-05-21T00:50:32.776Z,21.00
2019-05-21T00:52:59.394Z,21.17
2019-05-21T00:55:25.833Z,20.80
2019-05-21T00:57:52.206Z,21.33
2019-05-21T01:00:19.001Z,20.87
2019-05-21T01:02:45.645Z,21.10
2019-05-21T01:05:12.859Z,18.30
2019-05-21T01:07:39.293Z,19.07
2019-05-21T01:10:06.205Z,18.47
2019-05-21T01:12:32.736Z,20.00
2019-05-21T01:14:59.371Z,18.70
2019-05-21T01:17:25.770Z,19.00
2019-05-21T01:19:52.331Z,19.10
2019-05-21T01:22:18.635Z,18.27
2019-05-21T01:24:45.122Z,19.33
2019-05-21T01:27:11.761Z,18.83
2019-05-21T01:29:38.146Z,19.63
2019-05-21T01:32:04.572Z,19.03
2019-05-21T01:34:31.160Z,18.17
2019-05-21T01:36:57.691Z,17.97
2019-05-21T01:39:24.081Z,17.63
2019-05-21T01:41:50.497Z,18.17
2019-05-21T01:44:16.891Z,17.33
2019-05-21T01:46:43.397Z,17.73
2019-05-21T01:49:09.670Z,16.87
2019-05-21T01:51:36.305Z,17.43
2019-05-21T01:54:03.217Z,17.27
2019-05-21T01:56:29.655Z,16.93
2019-05-21T01:58:55.930Z,16.23
2019-05-21T02:01:22.445Z,16.87
2019-05-21T02:03:49.049Z,18.03
2019-05-21T02:06:15.675Z,18.80
2019-05-21T02:08:41.965Z,19.27
2019-05-21T02:11:08.492Z,20.80
2019-05-21T02:13:35.005Z,22.00
2019-05-21T02:16:01.460Z,21.30
2019-05-21T02:18:27.976Z,24.70
2019-05-21T02:20:54.436Z,27.13
2019-05-21T02:23:21.088Z,28.47
2019-05-21T02:25:47.380Z,28.20
2019-05-21T02:28:13.794Z,29.30
2019-05-21T02:30:40.591Z,30.73
2019-05-21T02:33:06.916Z,31.60
2019-05-21T02:35:51.053Z,32.83
2019-05-21T02:38:02.935Z,32.53
2019-05-21T02:40:29.497Z,33.37
2019-05-21T02:42:56.146Z,34.07
2019-05-21T02:45:22.702Z,33.83
2019-05-21T02:47:49.133Z,36.07
2019-05-21T02:50:15.715Z,37.10
2019-05-21T02:52:42.374Z,39.13
2019-05-21T02:55:09.260Z,41.50
2019-05-21T02:57:40.116Z,41.40
2019-05-21T03:00:30.326Z,40.63
2019-05-21T03:02:58.465Z,42.80
2019-05-21T03:05:25.062Z,41.97
2019-05-21T03:07:51.667Z,43.53
2019-05-21T03:10:18.112Z,43.70
2019-05-21T03:12:44.725Z,44.20
2019-05-21T03:15:11.406Z,45.83
2019-05-21T03:17:37.820Z,42.40
2019-05-21T03:20:10.326Z,43.73
2019-05-21T03:22:36.589Z,43.37
2019-05-21T03:25:04.980Z,43.77
2019-05-21T03:27:31.269Z,43.80
2019-05-21T03:29:57.719Z,43.00
2019-05-21T03:32:24.252Z,41.30
2019-05-21T03:34:50.762Z,40.87
2019-05-21T03:37:17.148Z,42.53
2019-05-21T03:39:43.464Z,41.47
2019-05-21T03:42:10.109Z,40.37
2019-05-21T03:44:36.612Z,40.40
2019-05-21T03:47:03.232Z,40.60
2019-05-21T03:49:30.038Z,39.40
2019-05-21T03:51:56.423Z,38.60
2019-05-21T03:54:22.924Z,39.40
2019-05-21T03:56:49.306Z,38.13
2019-05-21T03:59:15.803Z,36.67
2019-05-21T04:01:42.208Z,35.97
2019-05-21T04:04:08.812Z,35.50
2019-05-21T04:06:50.758Z,36.77
2019-05-21T04:09:06.309Z,34.43
2019-05-21T04:11:32.726Z,35.17
2019-05-21T04:13:59.087Z,35.20
2019-05-21T04:16:36.493Z,33.57
2019-05-21T04:19:19.703Z,32.57
2019-05-21T04:21:46.005Z,34.00
2019-05-21T04:24:12.407Z,34.40
2019-05-21T04:26:38.996Z,32.53
2019-05-21T04:29:05.414Z,31.67
2019-05-21T04:31:31.925Z,30.53
2019-05-21T04:33:58.430Z,29.13
2019-05-21T04:36:24.930Z,27.97
2019-05-21T04:38:51.436Z,29.40
2019-05-21T04:41:18.022Z,28.47
2019-05-21T04:43:44.519Z,28.87
2019-05-21T04:46:11.112Z,28.23
2019-05-21T04:48:37.621Z,30.37
2019-05-21T04:51:04.238Z,30.23
2019-05-21T04:53:30.534Z,30.50
2019-05-21T04:55:56.952Z,29.27
2019-05-21T04:58:23.215Z,27.03
2019-05-21T05:00:49.824Z,27.83
2019-05-21T05:03:16.355Z,28.07
2019-05-21T05:05:42.931Z,28.43
2019-05-21T05:08:09.349Z,29.70
2019-05-21T05:10:35.899Z,27.37
2019-05-21T05:13:02.561Z,28.30
2019-05-21T05:15:29.176Z,29.33
2019-05-21T05:17:55.697Z,29.27
2019-05-21T05:20:22.057Z,27.97
2019-05-21T05:22:48.707Z,29.07
2019-05-21T05:25:17.105Z,28.23
2019-05-21T05:27:43.443Z,26.90
2019-05-21T05:30:10.322Z,27.93
2019-05-21T05:32:36.702Z,27.90
2019-05-21T05:35:04.928Z,27.00
2019-05-21T05:37:43.216Z,28.47
2019-05-21T05:39:59.836Z,27.83
2019-05-21T05:42:26.330Z,26.13
2019-05-21T05:44:52.624Z,26.70
2019-05-21T05:47:19.281Z,25.77
2019-05-21T05:49:47.727Z,25.17
2019-05-21T05:52:14.212Z,26.00
2019-05-21T05:54:40.531Z,26.77
2019-05-21T05:57:07.092Z,26.47
2019-05-21T05:59:33.617Z,26.93
2019-05-21T06:02:00.231Z,27.57
2019-05-21T06:04:26.786Z,28.50
2019-05-21T06:06:53.208Z,27.13
2019-05-21T06:09:19.616Z,28.40
2019-05-21T06:11:46.115Z,27.03
2019-05-21T06:14:12.406Z,26.30
2019-05-21T06:16:38.939Z,25.87
2019-05-21T06:19:05.558Z,26.77
2019-05-21T06:21:32.039Z,24.63
2019-05-21T06:23:58.336Z,24.93
2019-05-21T06:26:24.807Z,22.90
2019-05-21T06:28:51.225Z,25.03
2019-05-21T06:31:17.736Z,23.90
2019-05-21T06:33:44.296Z,23.10
2019-05-21T06:36:10.715Z,23.43
2019-05-21T06:38:37.215Z,22.97
2019-05-21T06:41:03.858Z,23.13
2019-05-21T06:43:30.211Z,24.27
2019-05-21T06:45:56.795Z,23.13
2019-05-21T06:48:23.381Z,22.83
2019-05-21T06:50:49.649Z,23.77
2019-05-21T06:53:16.157Z,24.73
2019-05-21T06:55:42.692Z,24.40
2019-05-21T06:58:09.154Z,24.47
2019-05-21T07:00:35.668Z,26.12
2019-05-21T07:03:02.161Z,23.60
2019-05-21T07:05:28.957Z,24.70
2019-05-21T07:07:55.526Z,24.20
2019-05-21T07:10:22.072Z,25.60
2019-05-21T07:12:48.547Z,24.43
2019-05-21T07:15:15.230Z,23.23
2019-05-21T07:17:41.548Z,23.13
2019-05-21T07:20:09.228Z,22.93
2019-05-21T07:22:35.899Z,23.50
2019-05-21T07:25:05.104Z,25.00
2019-05-21T07:27:31.638Z,22.67
2019-05-21T07:29:57.924Z,23.13
2019-05-21T07:32:24.391Z,23.97
2019-05-21T07:34:51.044Z,21.53
2019-05-21T07:37:17.364Z,20.60
2019-05-21T07:39:43.816Z,22.33
2019-05-21T07:42:10.476Z,21.87
2019-05-21T07:44:37.077Z,20.97
2019-05-21T07:47:03.855Z,20.20
2019-05-21T07:49:30.351Z,20.40
2019-05-21T07:51:56.963Z,22.13
2019-05-21T07:54:23.567Z,20.40
2019-05-21T07:56:50.147Z,20.30
2019-05-21T07:59:16.413Z,20.73
2019-05-21T08:01:42.829Z,20.00
2019-05-21T08:04:09.417Z,20.57
2019-05-21T08:06:35.976Z,20.10
2019-05-21T08:09:13.098Z,20.30
2019-05-21T08:11:33.218Z,21.00
2019-05-21T08:13:59.787Z,19.47
2019-05-21T08:16:26.054Z,20.60
2019-05-21T08:18:52.519Z,22.13
2019-05-21T08:21:18.924Z,21.33
2019-05-21T08:23:45.356Z,20.10
2019-05-21T08:26:11.837Z,19.70
2019-05-21T08:28:38.443Z,19.27
2019-05-21T08:31:05.065Z,20.23
2019-05-21T08:33:31.581Z,19.87
2019-05-21T08:35:57.995Z,19.97
2019-05-21T08:38:24.539Z,21.13
2019-05-21T08:40:51.058Z,20.63
2019-05-21T08:43:17.653Z,20.57
2019-05-21T08:45:44.150Z,19.57
2019-05-21T08:48:10.819Z,19.03
2019-05-21T08:50:37.386Z,18.67
2019-05-21T08:53:03.967Z,18.33
2019-05-21T08:55:30.478Z,18.13
2019-05-21T08:58:07.005Z,18.83
2019-05-21T09:00:26.161Z,18.27
2019-05-21T09:02:52.877Z,17.77
2019-05-21T09:05:19.472Z,18.47
2019-05-21T09:07:52.333Z,17.43
2019-05-21T09:10:15.067Z,18.40
2019-05-21T09:12:41.543Z,17.77
2019-05-21T09:15:08.755Z,16.20
2019-05-21T09:17:35.251Z,16.67
2019-05-21T09:20:03.824Z,16.27
2019-05-21T09:22:30.538Z,16.33
2019-05-21T09:24:57.111Z,15.30
2019-05-21T09:27:23.795Z,14.43
2019-05-21T09:29:50.416Z,13.87
2019-05-21T09:32:16.943Z,13.67
2019-05-21T09:34:48.915Z,13.20
2019-05-21T09:37:19.587Z,13.17
2019-05-21T09:39:40.622Z,12.47
2019-05-21T09:42:07.287Z,13.83
2019-05-21T09:44:33.932Z,13.13
2019-05-21T09:47:00.688Z,12.60
2019-05-21T09:49:27.497Z,13.27
2019-05-21T09:51:53.997Z,13.87
2019-05-21T09:54:20.616Z,13.73
2019-05-21T09:56:47.161Z,13.47
2019-05-21T09:59:32.158Z,14.60
2019-05-21T10:02:06.527Z,15.97
2019-05-21T10:04:33.132Z,15.67
2019-05-21T10:07:00.667Z,15.80
2019-05-21T10:09:27.202Z,16.43
2019-05-21T10:11:53.866Z,16.37
2019-05-21T10:14:20.485Z,16.67
2019-05-21T10:16:46.908Z,17.13
2019-05-21T10:19:13.522Z,20.07
2019-05-21T10:21:39.871Z,20.43
2019-05-21T10:24:06.356Z,21.87
2019-05-21T10:26:33.579Z,21.10
2019-05-21T10:29:00.192Z,23.87
2019-05-21T10:31:26.631Z,22.73
2019-05-21T10:33:53.122Z,23.47
2019-05-21T10:36:19.686Z,24.53
2019-05-21T10:38:46.092Z,24.87
2019-05-21T10:41:12.917Z,24.17
2019-05-21T10:43:39.339Z,21.50
2019-05-21T10:46:06.035Z,22.60
2019-05-21T10:48:32.593Z,22.83
2019-05-21T10:50:59.198Z,22.03
2019-05-21T10:53:25.554Z,23.00
2019-05-21T10:55:52.042Z,22.47
2019-05-21T10:58:18.574Z,21.27
2019-05-21T11:00:47.177Z,22.07
2019-05-21T11:03:27.649Z,22.23
2019-05-21T11:06:09.095Z,20.97
2019-05-21T11:08:24.980Z,21.23
2019-05-21T11:10:52.116Z,22.27
2019-05-21T11:13:18.859Z,22.27
2019-05-21T11:15:45.519Z,20.93
2019-05-21T11:18:12.321Z,21.90
2019-05-21T11:20:40.277Z,22.93
2019-05-21T11:23:06.702Z,21.87
2019-05-21T11:25:33.210Z,22.83
2019-05-21T11:27:59.928Z,21.67
2019-05-21T11:30:26.471Z,21.80
2019-05-21T11:32:53.111Z,22.60
2019-05-21T11:35:20.163Z,23.10
2019-05-21T11:37:48.051Z,22.40
2019-05-21T11:40:15.992Z,21.77
2019-05-21T11:42:42.429Z,23.07
2019-05-21T11:45:10.167Z,23.43
2019-05-21T11:47:36.904Z,23.60
2019-05-21T11:50:07.792Z,24.10
2019-05-21T11:52:34.381Z,21.13
2019-05-21T11:55:01.126Z,22.63
2019-05-21T11:57:27.725Z,23.43
2019-05-21T11:59:54.362Z,24.03
2019-05-21T12:02:20.852Z,23.67
2019-05-21T12:04:47.409Z,22.20
2019-05-21T12:07:14.093Z,23.47
2019-05-21T12:09:40.533Z,24.13
2019-05-21T12:12:07.033Z,22.30
2019-05-21T12:14:33.737Z,24.43
2019-05-21T12:17:00.298Z,24.50
2019-05-21T12:19:26.917Z,23.00
2019-05-21T12:21:53.528Z,23.40
2019-05-21T12:24:20.181Z,22.60
2019-05-21T12:26:46.590Z,23.00
2019-05-21T12:29:13.285Z,22.83
2019-05-21T12:31:39.687Z,21.83
2019-05-21T12:34:06.442Z,22.83
2019-05-21T12:36:33.031Z,22.70
2019-05-21T12:39:13.129Z,22.13
2019-05-21T12:41:27.985Z,23.73
2019-05-21T12:43:54.590Z,24.27
2019-05-21T12:46:21.232Z,24.33
2019-05-21T12:48:47.727Z,23.87
2019-05-21T12:51:14.261Z,21.17
2019-05-21T12:53:40.919Z,21.20
2019-05-21T12:56:07.573Z,21.27
2019-05-21T12:58:33.986Z,21.13
2019-05-21T13:01:00.599Z,21.07
2019-05-21T13:03:27.538Z,21.07
2019-05-21T13:05:54.124Z,20.50
2019-05-21T13:08:20.750Z,21.77
2019-05-21T13:10:47.468Z,21.70
2019-05-21T13:13:14.157Z,21.23
2019-05-21T13:15:40.779Z,22.33
2019-05-21T13:18:07.286Z,21.60
2019-05-21T13:20:33.943Z,20.80
2019-05-21T13:23:00.510Z,24.27
2019-05-21T13:25:27.321Z,22.27
2019-05-21T13:27:57.274Z,22.90
2019-05-21T13:30:22.650Z,21.37
2019-05-21T13:32:49.218Z,23.57
2019-05-21T13:35:16.099Z,23.10
2019-05-21T13:37:42.644Z,22.90
2019-05-21T13:40:10.319Z,22.20
2019-05-21T13:42:37.012Z,20.00
2019-05-21T13:45:06.922Z,22.03
2019-05-21T13:47:33.426Z,22.33
2019-05-21T13:50:00.153Z,22.20
2019-05-21T13:52:26.747Z,22.13
2019-05-21T13:54:53.298Z,22.37
2019-05-21T13:57:20.017Z,22.50
2019-05-21T13:59:46.646Z,23.03
2019-05-21T14:02:14.889Z,22.97
2019-05-21T14:04:41.530Z,23.43
2019-05-21T14:07:08.158Z,23.60
2019-05-21T14:09:34.734Z,23.37
2019-05-21T14:12:01.373Z,23.37
2019-05-21T14:14:28.146Z,23.47
2019-05-21T14:16:54.771Z,24.37
2019-05-21T14:19:21.489Z,23.53
2019-05-21T14:21:48.118Z,23.70
2019-05-21T14:24:14.700Z,23.20
2019-05-21T14:26:41.424Z,21.73
2019-05-21T14:29:07.988Z,22.03
2019-05-21T14:31:34.569Z,23.00
2019-05-21T14:34:01.401Z,22.83
2019-05-21T14:36:28.050Z,23.13
2019-05-21T14:38:54.647Z,22.07
2019-05-21T14:41:21.287Z,22.73
2019-05-21T14:43:47.846Z,23.23
2019-05-21T14:46:14.413Z,24.70
2019-05-21T14:48:40.956Z,25.10
2019-05-21T14:51:07.578Z,27.47
2019-05-21T14:53:33.988Z,28.50
2019-05-21T14:56:00.678Z,28.00
2019-05-21T14:58:27.200Z,28.63
2019-05-21T15:00:53.854Z,29.90
2019-05-21T15:03:25.176Z,31.67
2019-05-21T15:05:49.024Z,31.20
2019-05-21T15:08:15.711Z,32.90
2019-05-21T15:10:48.584Z,34.70
2019-05-21T15:13:11.009Z,33.23
2019-05-21T15:15:37.766Z,32.77
2019-05-21T15:18:04.716Z,32.50
2019-05-21T15:20:33.317Z,32.63
2019-05-21T15:23:00.143Z,30.40
2019-05-21T15:25:26.769Z,30.80
2019-05-21T15:27:53.283Z,31.53
2019-05-21T15:30:20.613Z,28.83
2019-05-21T15:32:47.302Z,29.10
2019-05-21T15:35:14.183Z,27.83
2019-05-21T15:37:44.665Z,27.53
2019-05-21T15:40:09.950Z,29.93
2019-05-21T15:42:36.550Z,26.83
2019-05-21T15:45:05.390Z,26.17
2019-05-21T15:47:32.134Z,26.93
2019-05-21T15:49:58.715Z,26.67
2019-05-21T15:52:25.299Z,26.40
2019-05-21T15:54:51.923Z,26.47
2019-05-21T15:57:18.523Z,29.20
2019-05-21T15:59:45.212Z,28.77
2019-05-21T16:02:12.008Z,27.50
2019-05-21T16:04:38.749Z,29.30
2019-05-21T16:07:05.447Z,29.47
2019-05-21T16:09:32.006Z,28.33
2019-05-21T16:11:58.446Z,27.40
2019-05-21T16:14:24.983Z,28.80
2019-05-21T16:16:51.753Z,29.60
2019-05-21T16:19:18.790Z,28.53
2019-05-21T16:21:45.447Z,28.33
2019-05-21T16:24:12.231Z,29.47
2019-05-21T16:26:38.939Z,28.77
2019-05-21T16:29:05.823Z,28.63
2019-05-21T16:31:32.467Z,27.67
2019-05-21T16:33:59.018Z,27.93
2019-05-21T16:36:25.710Z,26.27
2019-05-21T16:38:52.603Z,28.60
2019-05-21T16:41:19.436Z,27.03
2019-05-21T16:43:46.154Z,25.23
2019-05-21T16:46:12.740Z,23.33
2019-05-21T16:48:39.641Z,23.57
2019-05-21T16:51:06.264Z,23.77
2019-05-21T16:53:32.928Z,23.50
2019-05-21T16:55:59.488Z,24.13
2019-05-21T16:58:26.214Z,22.60
2019-05-21T17:00:52.837Z,23.60
2019-05-21T17:03:19.577Z,23.37
2019-05-21T17:05:46.395Z,24.33
2019-05-21T17:08:13.143Z,23.70
2019-05-21T17:10:39.983Z,24.23
2019-05-21T17:13:06.600Z,24.53
2019-05-21T17:15:33.296Z,24.23
2019-05-21T17:18:00.226Z,23.63
2019-05-21T17:20:27.104Z,24.57
2019-05-21T17:22:53.572Z,23.43
2019-05-21T17:25:20.368Z,24.83
2019-05-21T17:27:47.105Z,24.37
2019-05-21T17:30:14.307Z,23.80
2019-05-21T17:32:41.303Z,23.17
2019-05-21T17:35:08.599Z,24.93
2019-05-21T17:37:35.370Z,23.13
2019-05-21T17:40:03.551Z,22.40
2019-05-21T17:42:30.291Z,23.77
2019-05-21T17:44:57.205Z,24.63
2019-05-21T17:47:24.082Z,23.47
2019-05-21T17:49:51.039Z,23.53
2019-05-21T17:52:17.907Z,22.20
2019-05-21T17:54:56.295Z,23.27
2019-05-21T17:57:13.619Z,21.57
2019-05-21T17:59:40.269Z,21.97
2019-05-21T18:02:09.193Z,20.97
2019-05-21T18:04:36.637Z,21.13
2019-05-21T18:07:05.394Z,20.70
2019-05-21T18:09:33.159Z,19.90
2019-05-21T18:12:00.912Z,19.50
2019-05-21T18:14:28.836Z,17.20
2019-05-21T18:16:55.786Z,18.67
2019-05-21T18:19:22.578Z,16.77
2019-05-21T18:21:49.752Z,18.60
2019-05-21T18:24:17.632Z,19.23
2019-05-21T18:26:44.502Z,16.57
2019-05-21T18:29:11.381Z,19.30
2019-05-21T18:31:38.386Z,21.80
2019-05-21T18:34:05.138Z,22.27
2019-05-21T18:36:32.185Z,19.83
2019-05-21T18:38:59.087Z,23.20
2019-05-21T18:41:26.110Z,20.90
2019-05-21T18:43:53.049Z,19.67
2019-05-21T18:46:19.881Z,20.37
2019-05-21T18:48:46.694Z,20.87
2019-05-21T18:51:13.468Z,21.67
2019-05-21T18:53:40.448Z,23.87
2019-05-21T18:56:07.356Z,20.57
2019-05-21T18:58:34.238Z,22.17
2019-05-21T19:01:01.269Z,21.00
2019-05-21T19:03:28.250Z,22.77
2019-05-21T19:05:56.933Z,22.23
2019-05-21T19:08:24.438Z,20.70
2019-05-21T19:10:51.386Z,22.27
2019-05-21T19:13:18.848Z,21.13
2019-05-21T19:15:45.929Z,20.60
2019-05-21T19:18:12.778Z,22.67
2019-05-21T19:20:39.833Z,21.30
2019-05-21T19:23:07.116Z,20.77
2019-05-21T19:25:34.034Z,21.83
2019-05-21T19:28:01.026Z,23.13
2019-05-21T19:30:27.909Z,24.10
2019-05-21T19:32:54.850Z,21.57
2019-05-21T19:35:21.767Z,24.10
2019-05-21T19:37:48.820Z,25.43
2019-05-21T19:40:16.883Z,28.37
2019-05-21T19:42:54.320Z,26.97
2019-05-21T19:45:14.636Z,26.57
2019-05-21T19:47:41.480Z,25.32
2019-05-21T19:50:09.902Z,22.97
2019-05-21T19:52:36.972Z,23.30
2019-05-21T19:55:07.191Z,21.33
2019-05-21T19:57:35.014Z,24.43
2019-05-21T20:00:02.629Z,22.77
2019-05-21T20:02:29.545Z,23.13
2019-05-21T20:04:56.545Z,21.33
2019-05-21T20:07:23.947Z,23.47
2019-05-21T20:09:51.137Z,21.07
2019-05-21T20:12:18.629Z,22.23
2019-05-21T20:14:45.963Z,24.80
2019-05-21T20:17:15.087Z,23.17
2019-05-21T20:19:43.336Z,23.67
2019-05-21T20:22:10.934Z,23.93
2019-05-21T20:24:40.128Z,25.67
2019-05-21T20:27:07.890Z,23.93
2019-05-21T20:29:34.756Z,24.50
2019-05-21T20:32:01.630Z,23.50
2019-05-21T20:34:28.225Z,23.67
2019-05-21T20:36:55.184Z,23.60
2019-05-21T20:39:22.353Z,23.70
2019-05-21T20:41:49.005Z,21.40
2019-05-21T20:44:17.856Z,20.73
2019-05-21T20:46:44.991Z,20.63
2019-05-21T20:49:12.039Z,20.23
2019-05-21T20:51:39.920Z,19.93
2019-05-21T20:54:07.571Z,19.73
2019-05-21T20:56:39.270Z,19.07
2019-05-21T20:59:06.112Z,19.67
2019-05-21T21:01:32.948Z,19.27
2019-05-21T21:04:01.108Z,18.73
2019-05-21T21:06:35.289Z,20.03
2019-05-21T21:08:57.673Z,19.93
2019-05-21T21:11:24.888Z,20.00
2019-05-21T21:13:52.489Z,19.73
2019-05-21T21:16:19.836Z,22.33
2019-05-21T21:18:46.814Z,20.93
2019-05-21T21:21:13.604Z,20.00
2019-05-21T21:23:41.937Z,22.53
2019-05-21T21:26:08.768Z,21.77
2019-05-21T21:28:35.388Z,22.67
2019-05-21T21:31:02.499Z,26.07
2019-05-21T21:33:29.103Z,28.37
2019-05-21T21:35:56.103Z,31.67
2019-05-21T21:38:24.629Z,33.43
2019-05-21T21:40:51.441Z,34.60
2019-05-21T21:43:18.137Z,35.90
2019-05-21T21:45:44.640Z,35.97
2019-05-21T21:48:11.667Z,36.13
2019-05-21T21:50:39.337Z,38.37
2019-05-21T21:53:06.203Z,39.13
2019-05-21T21:55:33.249Z,36.73
2019-05-21T21:58:00.392Z,37.83
2019-05-21T22:01:04.813Z,37.77
2019-05-21T22:03:34.566Z,37.67
2019-05-21T22:06:07.477Z,37.53
2019-05-21T22:08:34.634Z,40.10
2019-05-21T22:11:01.644Z,39.13
2019-05-21T22:13:28.493Z,40.47
2019-05-21T22:15:55.916Z,42.13
2019-05-21T22:18:23.150Z,43.20
2019-05-21T22:20:49.667Z,42.40
2019-05-21T22:23:16.994Z,43.03
2019-05-21T22:25:44.179Z,43.00
2019-05-21T22:28:10.810Z,43.17
2019-05-21T22:30:37.515Z,44.83
2019-05-21T22:33:04.136Z,46.10
2019-05-21T22:35:30.661Z,44.53
2019-05-21T22:37:57.210Z,43.67
2019-05-21T22:40:24.005Z,43.17
2019-05-21T22:42:50.793Z,43.07
2019-05-21T22:45:17.489Z,43.00
2019-05-21T22:47:44.087Z,43.73
2019-05-21T22:50:11.140Z,43.13
2019-05-21T22:52:37.704Z,41.70
2019-05-21T22:55:05.831Z,44.03
2019-05-21T22:57:32.250Z,44.40
2019-05-21T22:59:58.834Z,41.90
2019-05-21T23:02:27.358Z,42.60
2019-05-21T23:04:54.059Z,42.63
2019-05-21T23:07:20.635Z,41.13
2019-05-21T23:09:47.140Z,40.40
2019-05-21T23:12:13.760Z,40.37
2019-05-21T23:14:40.233Z,42.93
2019-05-21T23:17:08.163Z,43.67
2019-05-21T23:19:35.053Z,39.03
2019-05-21T23:22:02.424Z,39.63
2019-05-21T23:24:29.111Z,41.73
2019-05-21T23:26:56.329Z,41.27
2019-05-21T23:29:23.559Z,40.10
2019-05-21T23:31:50.266Z,39.97
2019-05-21T23:34:18.088Z,39.47
2019-05-21T23:36:46.707Z,37.07
2019-05-21T23:39:15.298Z,39.13
2019-05-21T23:41:41.639Z,39.07
2019-05-21T23:44:09.115Z,36.37
2019-05-21T23:46:36.068Z,37.40
2019-05-21T23:49:02.850Z,38.13
2019-05-21T23:51:29.406Z,36.20
2019-05-21T23:53:56.675Z,38.07
2019-05-21T23:56:23.148Z,39.17
2019-05-21T23:58:49.564Z,35.93
